createdAt,value
2022-10-13T00:01:18.498Z,60.19
2022-10-13T00:03:47.297Z,60.33
2022-10-13T00:06:26.224Z,60.19
2022-10-13T00:08:54.918Z,60.14
2022-10-13T00:11:29.655Z,60.28
2022-10-13T00:14:02.021Z,60.44
2022-10-13T00:16:31.884Z,60.49
2022-10-13T00:18:59.993Z,60.57
2022-10-13T00:21:28.946Z,60.75
2022-10-13T00:23:56.988Z,60.56
2022-10-13T00:26:26.775Z,60.43
2022-10-13T00:28:56.584Z,60.34
2022-10-13T00:31:31.282Z,60.48
2022-10-13T00:34:01.077Z,60.24
2022-10-13T00:36:29.670Z,60.14
2022-10-13T00:38:58.462Z,60.02
2022-10-13T00:41:26.503Z,60.19
2022-10-13T00:44:07.462Z,60.14
2022-10-13T00:46:37.357Z,60.23
2022-10-13T00:49:12.102Z,60.31
2022-10-13T00:51:47.456Z,60.31
2022-10-13T00:54:20.813Z,60.37
2022-10-13T00:56:50.803Z,60.28
2022-10-13T00:59:29.076Z,60.14
2022-10-13T01:01:59.660Z,60.15
2022-10-13T01:04:42.106Z,60.28
2022-10-13T01:07:10.688Z,60.23
2022-10-13T01:09:38.609Z,60.02
2022-10-13T01:12:36.714Z,59.88
2022-10-13T01:15:22.692Z,59.94
2022-10-13T01:17:57.072Z,59.94
2022-10-13T01:20:52.361Z,60.11
2022-10-13T01:23:26.202Z,60.06
2022-10-13T01:26:18.681Z,59.58
2022-10-13T01:29:06.112Z,59.55
2022-10-13T01:31:37.733Z,60.12
2022-10-13T01:34:30.226Z,60.21
2022-10-13T01:37:00.579Z,60.36
2022-10-13T01:39:42.945Z,60.27
2022-10-13T01:42:24.945Z,60.14
2022-10-13T01:45:00.442Z,60.55
2022-10-13T01:47:31.881Z,60.17
2022-10-13T01:50:01.522Z,60.21
2022-10-13T01:52:37.988Z,60.27
2022-10-13T01:55:12.755Z,60.21
2022-10-13T01:57:43.875Z,60.15
2022-10-13T02:00:18.570Z,60.21
2022-10-13T02:03:13.816Z,60.10
2022-10-13T02:05:49.542Z,60.19
2022-10-13T02:08:48.573Z,60.07
2022-10-13T02:11:20.317Z,60.14
2022-10-13T02:14:13.077Z,59.91
2022-10-13T02:16:45.618Z,60.32
2022-10-13T02:19:18.276Z,60.22
2022-10-13T02:21:47.161Z,60.05
2022-10-13T02:24:15.059Z,60.15
2022-10-13T02:26:44.566Z,60.18
2022-10-13T02:29:16.049Z,59.99
2022-10-13T02:31:45.305Z,60.11
2022-10-13T02:34:14.842Z,59.85
2022-10-13T02:36:45.556Z,59.92
2022-10-13T02:39:13.488Z,59.71
2022-10-13T02:41:41.278Z,59.71
2022-10-13T02:44:09.297Z,59.50
2022-10-13T02:46:42.277Z,59.48
2022-10-13T02:49:10.873Z,59.39
2022-10-13T02:51:40.290Z,59.30
2022-10-13T02:54:08.895Z,59.43
2022-10-13T02:56:36.722Z,59.63
2022-10-13T02:59:04.785Z,59.44
2022-10-13T03:01:33.068Z,59.54
2022-10-13T03:04:00.934Z,59.45
2022-10-13T03:06:28.714Z,59.25
2022-10-13T03:08:56.531Z,59.25
2022-10-13T03:11:24.326Z,59.30
2022-10-13T03:13:52.477Z,59.26
2022-10-13T03:16:20.722Z,59.48
2022-10-13T03:18:48.598Z,59.34
2022-10-13T03:21:16.427Z,59.23
2022-10-13T03:23:44.392Z,59.20
2022-10-13T03:26:12.207Z,59.02
2022-10-13T03:28:40.133Z,59.16
2022-10-13T03:31:11.090Z,59.32
2022-10-13T03:33:40.796Z,59.14
2022-10-13T03:36:08.872Z,59.25
2022-10-13T03:38:37.014Z,59.26
2022-10-13T03:41:11.167Z,59.44
2022-10-13T03:43:40.490Z,59.51
2022-10-13T03:46:14.205Z,59.42
2022-10-13T03:48:42.045Z,59.16
2022-10-13T03:51:17.132Z,59.14
2022-10-13T03:53:51.412Z,59.51
2022-10-13T03:56:23.960Z,59.64
2022-10-13T03:59:00.359Z,59.76
2022-10-13T04:01:30.224Z,59.91
2022-10-13T04:04:00.199Z,59.96
2022-10-13T04:06:28.326Z,60.09
2022-10-13T04:08:56.565Z,59.94
2022-10-13T04:11:24.977Z,60.09
2022-10-13T04:13:59.253Z,59.93
2022-10-13T04:16:30.565Z,60.11
2022-10-13T04:19:04.120Z,60.08
2022-10-13T04:21:34.693Z,60.12
2022-10-13T04:24:03.417Z,59.99
2022-10-13T04:26:34.973Z,60.21
2022-10-13T04:29:10.514Z,60.47
2022-10-13T04:31:40.378Z,60.28
2022-10-13T04:34:08.584Z,60.19
2022-10-13T04:36:36.499Z,60.13
2022-10-13T04:39:04.915Z,60.08
2022-10-13T04:41:34.107Z,59.94
2022-10-13T04:44:02.632Z,59.76
2022-10-13T04:46:30.869Z,59.94
2022-10-13T04:48:58.751Z,59.94
2022-10-13T04:51:33.753Z,59.89
2022-10-13T04:54:03.103Z,59.89
2022-10-13T04:56:31.421Z,59.90
2022-10-13T04:59:05.941Z,59.98
2022-10-13T05:01:36.035Z,59.94
2022-10-13T05:04:07.620Z,59.88
2022-10-13T05:06:58.973Z,60.10
2022-10-13T05:09:29.025Z,60.14
2022-10-13T05:11:57.376Z,60.31
2022-10-13T05:14:25.374Z,60.19
2022-10-13T05:16:54.361Z,60.51
2022-10-13T05:19:22.252Z,60.46
2022-10-13T05:21:50.299Z,60.39
2022-10-13T05:24:18.171Z,60.28
2022-10-13T05:26:50.442Z,60.17
2022-10-13T05:29:18.427Z,60.14
2022-10-13T05:31:46.291Z,60.19
2022-10-13T05:34:14.155Z,60.34
2022-10-13T05:36:41.949Z,60.38
2022-10-13T05:39:10.517Z,60.44
2022-10-13T05:41:39.455Z,60.44
2022-10-13T05:44:14.250Z,60.26
2022-10-13T05:46:54.454Z,60.21
2022-10-13T05:49:22.725Z,60.11
2022-10-13T05:51:58.912Z,60.22
2022-10-13T05:54:38.263Z,60.25
2022-10-13T05:57:41.482Z,60.43
2022-10-13T06:00:18.969Z,60.33
2022-10-13T06:03:07.117Z,60.39
2022-10-13T06:05:35.103Z,60.50
2022-10-13T06:08:03.013Z,60.35
2022-10-13T06:10:31.260Z,60.36
2022-10-13T06:12:59.034Z,60.31
2022-10-13T06:15:28.285Z,60.30
2022-10-13T06:17:57.438Z,60.39
2022-10-13T06:20:26.730Z,60.30
2022-10-13T06:22:56.037Z,60.50
2022-10-13T06:25:23.962Z,60.48
2022-10-13T06:27:51.857Z,60.39
2022-10-13T06:30:19.770Z,60.10
2022-10-13T06:32:47.543Z,60.26
2022-10-13T06:35:15.525Z,60.27
2022-10-13T06:37:43.709Z,60.26
2022-10-13T06:40:12.832Z,60.09
2022-10-13T06:42:40.665Z,60.15
2022-10-13T06:45:10.489Z,60.36
2022-10-13T06:47:41.346Z,60.31
2022-10-13T06:50:09.780Z,60.41
2022-10-13T06:52:38.288Z,60.41
2022-10-13T06:55:06.738Z,60.54
2022-10-13T06:57:35.721Z,60.49
2022-10-13T07:00:07.583Z,60.78
2022-10-13T07:02:36.216Z,60.61
2022-10-13T07:05:04.542Z,60.61
2022-10-13T07:07:32.404Z,60.46
2022-10-13T07:10:00.240Z,60.54
2022-10-13T07:12:28.028Z,60.67
2022-10-13T07:14:55.966Z,60.59
2022-10-13T07:17:23.764Z,60.49
2022-10-13T07:19:56.946Z,60.86
2022-10-13T07:22:26.930Z,60.71
2022-10-13T07:24:54.761Z,60.71
2022-10-13T07:27:24.137Z,60.66
2022-10-13T07:29:52.309Z,60.70
2022-10-13T07:32:20.096Z,60.67
2022-10-13T07:34:48.022Z,60.77
2022-10-13T07:37:16.500Z,60.63
2022-10-13T07:39:44.471Z,60.78
2022-10-13T07:42:12.279Z,60.72
2022-10-13T07:44:40.076Z,60.79
2022-10-13T07:47:07.878Z,60.83
2022-10-13T07:49:35.878Z,60.74
2022-10-13T07:52:05.053Z,60.69
2022-10-13T07:54:32.987Z,60.61
2022-10-13T07:57:00.792Z,60.46
2022-10-13T07:59:28.815Z,60.49
2022-10-13T08:01:56.657Z,60.44
2022-10-13T08:04:25.537Z,60.36
2022-10-13T08:06:53.404Z,60.33
2022-10-13T08:09:21.568Z,60.05
2022-10-13T08:11:49.539Z,60.00
2022-10-13T08:14:17.678Z,59.99
2022-10-13T08:16:48.740Z,60.09
2022-10-13T08:19:22.140Z,59.96
2022-10-13T08:21:58.185Z,59.66
2022-10-13T08:24:28.596Z,59.73
2022-10-13T08:26:56.945Z,59.67
2022-10-13T08:29:24.873Z,59.37
2022-10-13T08:31:54.127Z,59.45
2022-10-13T08:34:24.508Z,59.42
2022-10-13T08:36:54.753Z,59.17
2022-10-13T08:39:25.050Z,59.27
2022-10-13T08:41:54.262Z,59.18
2022-10-13T08:47:56.800Z,58.73
2022-10-13T08:50:28.988Z,58.79
2022-10-13T08:53:19.071Z,59.09
2022-10-13T08:55:56.091Z,59.23
2022-10-13T08:58:36.341Z,58.71
2022-10-13T09:01:06.787Z,58.76
2022-10-13T09:04:17.185Z,58.44
2022-10-13T09:07:21.651Z,58.51
2022-10-13T09:09:53.056Z,58.10
2022-10-13T09:12:24.996Z,57.73
2022-10-13T09:15:02.973Z,57.78
2022-10-13T09:17:32.683Z,57.51
2022-10-13T09:20:19.742Z,57.43
2022-10-13T09:23:17.893Z,57.54
2022-10-13T09:25:56.059Z,57.25
2022-10-13T09:28:25.262Z,57.05
2022-10-13T09:31:10.378Z,56.98
2022-10-13T09:33:42.024Z,56.65
2022-10-13T09:36:16.041Z,56.92
2022-10-13T09:39:15.580Z,57.04
2022-10-13T09:41:45.847Z,56.79
2022-10-13T09:44:30.429Z,56.83
2022-10-13T09:47:04.202Z,56.61
2022-10-13T09:49:44.517Z,56.53
2022-10-13T09:52:22.066Z,56.38
2022-10-13T09:54:58.260Z,56.50
2022-10-13T09:57:31.824Z,56.14
2022-10-13T10:00:22.277Z,56.46
2022-10-13T10:03:08.496Z,56.17
2022-10-13T10:05:55.734Z,56.40
2022-10-13T10:09:04.847Z,56.13
2022-10-13T10:11:45.799Z,56.48
2022-10-13T10:14:32.132Z,56.11
2022-10-13T10:17:41.210Z,56.31
2022-10-13T10:20:50.475Z,56.02
2022-10-13T10:23:36.182Z,55.83
2022-10-13T10:26:22.285Z,55.83
2022-10-13T10:29:20.674Z,55.85
2022-10-13T10:32:28.398Z,55.50
2022-10-13T10:35:04.950Z,55.21
2022-10-13T10:38:30.281Z,55.69
2022-10-13T10:41:34.517Z,55.48
2022-10-13T10:44:34.988Z,55.26
2022-10-13T10:47:23.335Z,54.99
2022-10-13T10:49:57.099Z,55.09
2022-10-13T10:52:47.074Z,54.96
2022-10-13T10:55:39.925Z,54.84
2022-10-13T10:58:46.433Z,54.82
2022-10-13T11:01:29.891Z,54.63
2022-10-13T11:04:01.774Z,54.60
2022-10-13T11:06:37.848Z,54.79
2022-10-13T11:09:07.525Z,54.47
2022-10-13T11:11:38.993Z,54.54
2022-10-13T11:14:39.417Z,54.51
2022-10-13T11:17:06.976Z,54.59
2022-10-13T11:19:40.990Z,54.05
2022-10-13T11:22:18.722Z,54.16
2022-10-13T11:24:57.911Z,54.42
2022-10-13T11:27:39.978Z,54.31
2022-10-13T11:31:04.820Z,54.57
2022-10-13T11:33:41.432Z,54.27
2022-10-13T11:36:51.724Z,54.37
2022-10-13T11:39:28.274Z,54.09
2022-10-13T11:42:36.388Z,54.24
2022-10-13T11:45:40.956Z,54.29
2022-10-13T11:48:35.632Z,53.66
2022-10-13T11:51:26.004Z,53.32
2022-10-13T11:54:08.444Z,53.27
2022-10-13T11:56:48.770Z,53.38
2022-10-13T11:59:31.508Z,53.25
2022-10-13T12:02:11.382Z,53.42
2022-10-13T12:04:46.306Z,53.40
2022-10-13T12:07:17.382Z,52.82
2022-10-13T12:09:51.370Z,52.98
2022-10-13T12:12:24.163Z,52.86
2022-10-13T12:14:58.722Z,53.05
2022-10-13T12:17:31.820Z,52.97
2022-10-13T12:20:04.186Z,52.73
2022-10-13T12:22:33.878Z,52.44
2022-10-13T12:25:07.178Z,52.42
2022-10-13T12:27:51.534Z,53.06
2022-10-13T12:30:30.480Z,52.92
2022-10-13T12:33:00.534Z,52.50
2022-10-13T12:35:31.334Z,51.43
2022-10-13T12:38:05.101Z,51.26
2022-10-13T12:40:36.154Z,51.89
2022-10-13T12:43:05.536Z,51.89
2022-10-13T12:45:35.136Z,51.54
2022-10-13T12:48:03.545Z,51.62
2022-10-13T12:50:36.779Z,51.77
2022-10-13T12:53:20.836Z,51.64
2022-10-13T12:56:01.257Z,51.39
2022-10-13T12:58:34.410Z,51.32
2022-10-13T13:01:14.340Z,51.47
2022-10-13T13:03:44.143Z,51.71
2022-10-13T13:06:14.649Z,51.19
2022-10-13T13:08:43.517Z,50.96
2022-10-13T13:11:35.345Z,51.27
2022-10-13T13:14:36.653Z,51.38
2022-10-13T13:17:06.938Z,50.74
2022-10-13T13:19:36.713Z,50.88
2022-10-13T13:22:06.347Z,50.87
2022-10-13T13:24:40.100Z,50.70
2022-10-13T13:27:17.869Z,50.90
2022-10-13T13:29:46.659Z,51.37
2022-10-13T13:32:20.106Z,50.98
2022-10-13T13:34:49.269Z,50.86
2022-10-13T13:37:36.549Z,51.24
2022-10-13T13:40:07.019Z,51.02
2022-10-13T13:42:34.845Z,51.43
2022-10-13T13:45:02.641Z,52.06
2022-10-13T13:47:30.519Z,52.57
2022-10-13T13:49:58.413Z,52.34
2022-10-13T13:52:26.504Z,52.90
2022-10-13T13:54:56.145Z,52.86
2022-10-13T13:57:23.991Z,53.27
2022-10-13T13:59:51.788Z,53.48
2022-10-13T14:02:22.206Z,53.53
2022-10-13T14:04:50.067Z,53.64
2022-10-13T14:07:19.246Z,53.77
2022-10-13T14:09:48.298Z,54.16
2022-10-13T14:12:16.176Z,54.11
2022-10-13T14:14:43.975Z,54.49
2022-10-13T14:17:14.474Z,54.33
2022-10-13T14:19:42.866Z,54.64
2022-10-13T14:22:10.692Z,54.36
2022-10-13T14:24:38.450Z,54.58
2022-10-13T14:27:09.148Z,54.55
2022-10-13T14:29:37.585Z,54.42
2022-10-13T14:32:05.843Z,54.49
2022-10-13T14:34:33.701Z,54.31
2022-10-13T14:37:01.596Z,54.31
2022-10-13T14:39:29.785Z,54.62
2022-10-13T14:41:57.607Z,54.67
2022-10-13T14:44:25.623Z,54.56
2022-10-13T14:46:53.485Z,54.42
2022-10-13T14:49:21.337Z,54.31
2022-10-13T14:51:49.201Z,54.48
2022-10-13T14:54:18.105Z,54.60
2022-10-13T14:56:45.925Z,54.46
2022-10-13T14:59:13.705Z,54.68
2022-10-13T15:01:43.525Z,54.71
2022-10-13T15:04:11.580Z,54.26
2022-10-13T15:06:40.613Z,54.27
2022-10-13T15:09:10.418Z,54.47
2022-10-13T15:11:38.530Z,54.60
2022-10-13T15:14:07.486Z,54.73
2022-10-13T15:16:37.590Z,54.61
2022-10-13T15:19:05.893Z,54.67
2022-10-13T15:21:33.986Z,54.67
2022-10-13T15:24:02.227Z,54.87
2022-10-13T15:26:30.044Z,54.78
2022-10-13T15:28:57.988Z,54.73
2022-10-13T15:31:26.004Z,54.62
2022-10-13T15:33:54.533Z,54.78
2022-10-13T15:36:26.243Z,54.94
2022-10-13T15:38:54.063Z,55.03
2022-10-13T15:41:23.673Z,54.89
2022-10-13T15:43:51.662Z,55.03
2022-10-13T15:46:24.407Z,55.30
2022-10-13T15:48:54.191Z,55.32
2022-10-13T15:51:24.554Z,55.56
2022-10-13T15:53:52.442Z,55.62
2022-10-13T15:56:20.274Z,55.63
2022-10-13T15:58:48.099Z,55.69
2022-10-13T16:01:16.037Z,55.68
2022-10-13T16:03:43.950Z,55.77
2022-10-13T16:06:13.549Z,55.84
2022-10-13T16:08:45.768Z,55.86
2022-10-13T16:11:17.002Z,56.07
2022-10-13T16:13:50.781Z,56.02
2022-10-13T16:16:19.151Z,56.29
2022-10-13T16:18:47.423Z,56.41
2022-10-13T16:21:22.849Z,56.63
2022-10-13T16:23:50.886Z,56.59
2022-10-13T16:26:18.933Z,56.62
2022-10-13T16:28:47.254Z,56.81
2022-10-13T16:31:17.062Z,56.86
2022-10-13T16:33:46.136Z,56.82
2022-10-13T16:36:18.904Z,57.18
2022-10-13T16:38:48.555Z,57.25
2022-10-13T16:41:18.588Z,57.32
2022-10-13T16:43:47.516Z,57.49
2022-10-13T16:46:18.396Z,57.57
2022-10-13T16:48:47.454Z,57.71
2022-10-13T16:51:22.239Z,57.69
2022-10-13T16:53:52.698Z,57.44
2022-10-13T16:56:22.716Z,57.63
2022-10-13T16:58:56.470Z,57.46
2022-10-13T17:01:25.979Z,57.47
2022-10-13T17:03:55.924Z,57.58
2022-10-13T17:06:26.989Z,57.59
2022-10-13T17:09:00.320Z,57.75
2022-10-13T17:11:30.530Z,57.72
2022-10-13T17:14:00.241Z,57.92
2022-10-13T17:16:31.418Z,57.91
2022-10-13T17:18:59.640Z,57.98
2022-10-13T17:21:39.553Z,58.07
2022-10-13T17:24:09.510Z,58.21
2022-10-13T17:26:37.376Z,58.27
2022-10-13T17:29:05.357Z,58.33
2022-10-13T17:31:33.186Z,58.27
2022-10-13T17:34:01.089Z,58.22
2022-10-13T17:36:32.291Z,58.23
2022-10-13T17:39:06.708Z,58.30
2022-10-13T17:41:41.433Z,58.36
2022-10-13T17:44:11.375Z,58.38
2022-10-13T17:46:39.901Z,58.40
2022-10-13T17:49:11.968Z,58.45
2022-10-13T17:51:44.676Z,58.58
2022-10-13T17:54:16.500Z,58.63
2022-10-13T17:56:48.937Z,58.81
2022-10-13T17:59:18.170Z,58.85
2022-10-13T18:01:46.411Z,58.73
2022-10-13T18:04:17.898Z,58.66
2022-10-13T18:06:46.072Z,58.86
2022-10-13T18:09:21.133Z,58.74
2022-10-13T18:11:51.131Z,58.72
2022-10-13T18:14:22.790Z,58.66
2022-10-13T18:16:52.224Z,58.77
2022-10-13T18:19:21.394Z,58.74
2022-10-13T18:21:50.138Z,58.80
2022-10-13T18:24:18.026Z,58.71
2022-10-13T18:26:46.461Z,58.94
2022-10-13T18:29:14.778Z,58.84
2022-10-13T18:31:43.051Z,58.85
2022-10-13T18:34:17.069Z,58.73
2022-10-13T18:36:48.477Z,58.62
2022-10-13T18:39:25.699Z,58.54
2022-10-13T18:41:55.511Z,58.62
2022-10-13T18:44:25.137Z,58.56
2022-10-13T18:46:56.396Z,58.71
2022-10-13T18:49:30.909Z,58.74
2022-10-13T18:52:01.157Z,58.64
2022-10-13T18:54:30.206Z,58.44
2022-10-13T18:56:58.695Z,58.30
2022-10-13T18:59:26.558Z,58.06
2022-10-13T19:01:54.400Z,58.15
2022-10-13T19:04:22.704Z,58.02
2022-10-13T19:06:51.547Z,58.05
2022-10-13T19:09:21.550Z,57.85
2022-10-13T19:11:49.444Z,58.14
2022-10-13T19:14:17.262Z,58.38
2022-10-13T19:16:45.329Z,58.30
2022-10-13T19:19:13.640Z,58.38
2022-10-13T19:21:42.151Z,58.44
2022-10-13T19:24:10.839Z,58.55
2022-10-13T19:26:38.780Z,58.61
2022-10-13T19:29:11.076Z,58.61
2022-10-13T19:31:40.708Z,58.58
2022-10-13T19:34:10.213Z,58.74
2022-10-13T19:36:42.134Z,58.87
2022-10-13T19:39:21.821Z,58.79
2022-10-13T19:41:51.685Z,58.86
2022-10-13T19:44:20.705Z,59.12
2022-10-13T19:46:49.218Z,58.93
2022-10-13T19:49:20.706Z,58.86
2022-10-13T19:51:49.917Z,59.03
2022-10-13T19:54:19.727Z,58.87
2022-10-13T19:56:49.220Z,59.06
2022-10-13T19:59:18.623Z,59.03
2022-10-13T20:01:47.082Z,59.12
2022-10-13T20:04:18.570Z,59.10
2022-10-13T20:06:51.144Z,58.96
2022-10-13T20:09:19.601Z,58.93
2022-10-13T20:11:51.697Z,59.12
2022-10-13T20:14:19.710Z,58.89
2022-10-13T20:16:48.260Z,58.89
2022-10-13T20:19:19.546Z,58.90
2022-10-13T20:21:51.719Z,58.97
2022-10-13T20:24:23.132Z,59.03
2022-10-13T20:26:51.035Z,58.94
2022-10-13T20:29:23.755Z,58.89
2022-10-13T20:31:51.657Z,58.82
2022-10-13T20:34:19.561Z,58.83
2022-10-13T20:36:49.369Z,59.06
2022-10-13T20:39:17.346Z,58.86
2022-10-13T20:41:45.159Z,59.17
2022-10-13T20:44:14.912Z,59.18
2022-10-13T20:46:42.714Z,59.06
2022-10-13T20:49:12.294Z,59.28
2022-10-13T20:51:42.712Z,59.30
2022-10-13T20:54:13.307Z,59.34
2022-10-13T20:56:41.824Z,59.65
2022-10-13T20:59:14.690Z,59.91
2022-10-13T21:01:42.991Z,59.75
2022-10-13T21:04:11.352Z,59.70
2022-10-13T21:06:40.204Z,59.94
2022-10-13T21:09:08.082Z,59.75
2022-10-13T21:11:36.571Z,59.82
2022-10-13T21:14:07.019Z,59.83
2022-10-13T21:16:35.463Z,59.57
2022-10-13T21:19:08.444Z,59.38
2022-10-13T21:21:36.702Z,59.14
2022-10-13T21:24:07.204Z,58.93
2022-10-13T21:26:36.158Z,58.79
2022-10-13T21:29:05.277Z,58.44
2022-10-13T21:31:35.588Z,58.48
2022-10-13T21:34:04.053Z,58.54
2022-10-13T21:36:33.902Z,58.48
2022-10-13T21:39:06.097Z,58.53
2022-10-13T21:41:34.225Z,58.73
2022-10-13T21:44:02.874Z,58.50
2022-10-13T21:46:34.732Z,58.50
2022-10-13T21:49:06.145Z,58.23
2022-10-13T21:51:40.479Z,57.99
2022-10-13T21:54:13.122Z,57.81
2022-10-13T21:56:41.854Z,57.67
2022-10-13T21:59:12.809Z,57.88
2022-10-13T22:01:41.861Z,57.56
2022-10-13T22:04:14.668Z,57.51
2022-10-13T22:06:43.464Z,57.31
2022-10-13T22:09:12.123Z,57.02
2022-10-13T22:11:41.170Z,56.94
2022-10-13T22:14:12.836Z,56.72
2022-10-13T22:16:46.861Z,56.49
2022-10-13T22:19:16.596Z,56.38
2022-10-13T22:21:48.448Z,56.33
2022-10-13T22:24:19.982Z,56.25
2022-10-13T22:26:50.032Z,56.18
2022-10-13T22:29:22.057Z,56.32
2022-10-13T22:31:51.769Z,56.14
2022-10-13T22:34:19.831Z,56.12
2022-10-13T22:36:47.718Z,56.20
2022-10-13T22:39:16.039Z,56.17
2022-10-13T22:41:44.411Z,56.09
2022-10-13T22:44:13.572Z,56.33
2022-10-13T22:46:41.545Z,56.21
2022-10-13T22:49:14.689Z,56.24
2022-10-13T22:51:43.117Z,56.16
2022-10-13T22:54:12.521Z,56.18
2022-10-13T22:56:41.260Z,56.09
2022-10-13T22:59:11.558Z,56.19
2022-10-13T23:01:39.406Z,56.04
2022-10-13T23:04:07.294Z,56.19
2022-10-13T23:06:35.736Z,56.18
2022-10-13T23:09:10.414Z,56.08
2022-10-13T23:11:38.771Z,56.16
2022-10-13T23:14:09.034Z,56.03
2022-10-13T23:16:36.891Z,56.18
2022-10-13T23:19:04.833Z,56.15
2022-10-13T23:21:32.621Z,55.93
2022-10-13T23:24:04.427Z,56.08
2022-10-13T23:26:34.115Z,55.83
2022-10-13T23:29:02.451Z,55.82
2022-10-13T23:31:30.672Z,56.04
2022-10-13T23:33:59.536Z,56.04
2022-10-13T23:36:31.322Z,55.95
2022-10-13T23:39:06.379Z,56.14
2022-10-13T23:41:34.609Z,56.04
2022-10-13T23:44:02.586Z,55.86
2022-10-13T23:46:30.477Z,55.67
2022-10-13T23:48:58.309Z,55.72
2022-10-13T23:51:26.322Z,55.75
2022-10-13T23:53:54.951Z,55.60
2022-10-13T23:56:23.289Z,55.77
2022-10-13T23:58:51.302Z,55.57
